Time;durP1;ratioP1;P1;durP2;ratioP2;P2;SDS_P1;SDS_P2;PMS_P1;PMS_P2;Temp;Humidity;BMP_temperature;BMP_pressure;BME280_temperature;BME280_humidity;BME280_pressure;Samples;Min_cycle;Max_cycle;Signal;HPM_P1;HPM_P2
2022/12/02 00:02:38;;;;;;;2.83;2.17;;;;;;;1.47;100.00;100566.19;6296717;28;20041;-78
2022/12/02 00:05:39;;;;;;;2.13;1.92;;;;;;;1.45;100.00;100567.94;6296607;28;20059;-74
2022/12/02 00:08:39;;;;;;;3.67;2.75;;;;;;;1.43;100.00;100569.69;6282011;28;20284;-73
2022/12/02 00:11:40;;;;;;;9.75;3.10;;;;;;;1.50;100.00;100579.00;6274091;28;20123;-74
2022/12/02 00:14:42;;;;;;;3.85;2.42;;;;;;;1.46;100.00;100567.91;6257310;28;20049;-73
2022/12/02 00:17:42;;;;;;;7.35;2.67;;;;;;;1.44;100.00;100571.38;6295909;28;20045;-74
2022/12/02 00:20:44;;;;;;;3.35;2.85;;;;;;;1.47;100.00;100571.34;6298695;28;20445;-74
2022/12/02 00:23:45;;;;;;;5.85;3.03;;;;;;;1.41;100.00;100565.41;6285056;28;20126;-73
2022/12/02 00:26:46;;;;;;;4.93;2.72;;;;;;;1.47;100.00;100561.91;6274979;28;20499;-74
2022/12/02 00:29:47;;;;;;;5.38;3.10;;;;;;;1.43;100.00;100565.38;6274810;28;20037;-73
2022/12/02 00:32:50;;;;;;;4.30;2.78;;;;;;;1.46;100.00;100570.47;6256830;28;20132;-74
2022/12/02 00:35:51;;;;;;;6.43;3.30;;;;;;;1.45;100.00;100568.78;6294200;28;20491;-74
2022/12/02 00:38:53;;;;;;;5.15;3.00;;;;;;;1.48;100.00;100567.88;6299449;28;20048;-74
2022/12/02 00:41:53;;;;;;;3.67;2.15;;;;;;;1.40;100.00;100568.00;6298293;28;20549;-74
2022/12/02 00:48:13;;;;;;;10.32;3.03;;;;;;;1.38;100.00;100568.03;6299279;28;20451;-74
2022/12/02 00:51:14;;;;;;;3.17;2.08;;;;;;;1.43;100.00;100569.69;6297880;28;20040;-74
2022/12/02 00:54:15;;;;;;;4.28;2.28;;;;;;;1.32;100.00;100565.56;6298057;28;20145;-74
2022/12/02 00:57:15;;;;;;;5.80;3.05;;;;;;;1.40;100.00;100563.72;6299083;28;20474;-73
2022/12/02 01:00:17;;;;;;;3.10;2.13;;;;;;;1.36;100.00;100569.78;6314551;28;20084;-73
2022/12/02 01:03:18;;;;;;;5.40;3.35;;;;;;;1.39;100.00;100567.16;6297679;28;20052;-74
2022/12/02 01:06:19;;;;;;;5.07;2.45;;;;;;;1.28;100.00;100575.91;6297724;28;20482;-74
2022/12/02 01:09:19;;;;;;;7.00;3.60;;;;;;;1.35;100.00;100582.66;6280652;28;20059;-74
2022/12/02 01:12:20;;;;;;;4.95;2.53;;;;;;;1.27;100.00;100581.91;6297556;28;20041;-74
2022/12/02 01:15:21;;;;;;;4.22;2.55;;;;;;;1.30;100.00;100582.72;6297528;28;20131;-74
2022/12/02 01:18:22;;;;;;;4.00;2.95;;;;;;;1.26;100.00;100577.66;6298100;28;20045;-74
2022/12/02 01:21:23;;;;;;;7.00;3.58;;;;;;;1.24;100.00;100572.53;6297318;28;20059;-73
2022/12/02 01:24:23;;;;;;;3.50;2.25;;;;;;;1.32;100.00;100568.13;6297230;28;20079;-74
2022/12/02 01:27:24;;;;;;;6.72;3.97;;;;;;;1.32;100.00;100569.81;6275916;28;20484;-74
2022/12/02 01:30:28;;;;;;;8.63;3.00;;;;;;;1.36;100.00;100563.75;6272118;28;20045;-74
2022/12/02 01:33:28;;;;;;;3.25;1.83;;;;;;;1.35;100.00;100564.66;6272118;28;20114;-74
2022/12/02 01:36:29;;;;;;;6.00;2.67;;;;;;;1.38;100.00;100556.88;6273282;28;20480;-73
2022/12/02 01:39:30;;;;;;;3.40;2.38;;;;;;;1.38;100.00;100557.75;6271908;28;20403;-73
2022/12/02 01:42:31;;;;;;;7.68;3.58;;;;;;;1.44;100.00;100561.09;6273060;28;20037;-74
2022/12/02 01:45:32;;;;;;;4.40;2.45;;;;;;;1.44;100.00;100556.78;6273031;28;20068;-74
2022/12/02 01:48:35;;;;;;;18.02;3.72;;;;;;;1.34;100.00;100550.06;6271825;28;20049;-74
2022/12/02 01:51:36;;;;;;;4.55;3.03;;;;;;;1.37;100.00;100548.31;6272723;28;20476;-74
2022/12/02 01:54:36;;;;;;;6.97;3.28;;;;;;;1.35;100.00;100549.22;6272865;28;20044;-74
2022/12/02 01:57:37;;;;;;;6.10;2.97;;;;;;;1.40;100.00;100545.72;6271378;28;20524;-74
2022/12/02 02:00:39;;;;;;;3.80;2.20;;;;;;;1.51;100.00;100548.13;6271665;28;20068;-78
2022/12/02 02:03:40;;;;;;;2.60;2.20;;;;;;;1.33;100.00;100543.25;6272599;28;20041;-77
2022/12/02 02:06:44;;;;;;;3.83;2.63;;;;;;;1.41;100.00;100549.13;6272674;28;20094;-78
2022/12/02 02:09:44;;;;;;;3.90;2.53;;;;;;;1.38;100.00;100555.19;6271005;28;20127;-77
2022/12/02 02:12:46;;;;;;;7.03;2.70;;;;;;;1.44;100.00;100550.78;6270931;28;20048;-78
2022/12/02 02:15:47;;;;;;;3.05;2.25;;;;;;;1.35;100.00;100549.22;6272417;28;20044;-78
2022/12/02 02:18:47;;;;;;;4.40;2.78;;;;;;;1.17;100.00;100551.22;6271061;28;20141;-78
2022/12/02 02:21:52;;;;;;;5.47;2.78;;;;;;;1.37;100.00;100552.63;6270852;28;20102;-78
2022/12/02 02:24:52;;;;;;;8.85;3.50;;;;;;;1.49;100.00;100561.88;6272242;28;20048;-77
2022/12/02 02:27:59;;;;;;;9.07;2.95;;;;;;;1.44;99.77;100555.94;6270971;28;20063;-78
2022/12/02 02:31:00;;;;;;;4.22;2.88;;;;;;;1.42;99.91;100561.09;6269939;28;20044;-78
2022/12/02 02:34:01;;;;;;;5.20;2.42;;;;;;;1.45;99.65;100562.81;6272057;28;20037;-78
2022/12/02 02:37:02;;;;;;;8.07;2.97;;;;;;;1.49;98.65;100567.88;6254074;28;20119;-78
2022/12/02 02:40:03;;;;;;;9.05;3.30;;;;;;;1.59;99.29;100564.28;6271976;28;20076;-78
2022/12/02 02:43:05;;;;;;;3.22;2.13;;;;;;;1.57;99.16;100565.19;6271710;28;20075;-78
2022/12/02 02:46:06;;;;;;;3.42;2.53;;;;;;;1.51;98.72;100568.69;6271742;28;20048;-78
2022/12/02 02:49:08;;;;;;;3.25;2.63;;;;;;;1.53;98.54;100571.25;6270378;28;20127;-78
2022/12/02 02:52:08;;;;;;;5.50;2.95;;;;;;;1.53;98.28;100568.66;6271448;28;20118;-78
2022/12/02 02:55:17;;;;;;;5.50;3.20;;;;;;;1.48;98.92;100573.88;6270207;28;20495;-78
2022/12/02 02:58:21;;;;;;;4.60;2.70;;;;;;;1.58;98.18;100577.16;6271538;28;20123;-78
2022/12/02 03:01:26;;;;;;;7.10;3.03;;;;;;;1.62;97.54;100578.81;6270415;28;20037;-78
2022/12/02 03:04:27;;;;;;;16.80;3.90;;;;;;;1.66;98.81;100571.91;6270123;28;20562;-78
2022/12/02 03:07:28;;;;;;;3.85;2.60;;;;;;;1.69;98.17;100572.69;6270264;28;20138;-78
2022/12/02 03:10:29;;;;;;;1.80;1.55;;;;;;;1.75;99.16;100574.31;6269932;28;20522;-78
2022/12/02 03:13:32;;;;;;;5.18;3.13;;;;;;;1.74;97.28;100573.47;6271251;28;20475;-78
2022/12/02 03:16:33;;;;;;;5.13;2.47;;;;;;;1.73;97.03;100569.22;6271202;28;20419;-78
2022/12/02 03:19:34;;;;;;;9.23;3.47;;;;;;;1.68;97.31;100565.00;6286555;28;20128;-78
2022/12/02 03:22:35;;;;;;;9.60;2.80;;;;;;;1.63;97.97;100574.50;6303377;28;20051;-78
2022/12/02 03:25:36;;;;;;;4.13;3.08;;;;;;;1.70;97.59;100578.69;6271125;28;20049;-78
2022/12/02 03:28:37;;;;;;;5.05;2.38;;;;;;;1.67;96.71;100571.88;6303353;28;20514;-78
2022/12/02 03:31:38;;;;;;;4.38;2.35;;;;;;;1.59;97.13;100571.16;6269835;28;20044;-78
2022/12/02 03:34:41;;;;;;;6.90;2.65;;;;;;;1.65;97.73;100577.91;6269940;28;20044;-78
2022/12/02 03:37:41;;;;;;;4.82;2.78;;;;;;;1.65;97.52;100575.31;6253153;28;20414;-78
2022/12/02 03:40:43;;;;;;;4.60;2.70;;;;;;;1.58;97.66;100569.44;6269822;28;20107;-78
2022/12/02 03:43:51;;;;;;;3.40;2.00;;;;;;;1.64;97.74;100558.22;6274271;28;20480;-78
2022/12/02 03:46:52;;;;;;;7.13;2.63;;;;;;;1.63;97.41;100565.09;6276179;28;20056;-78
2022/12/02 03:49:53;;;;;;;8.20;3.80;;;;;;;1.64;97.64;100559.06;6274447;28;20084;-78
2022/12/02 03:52:54;;;;;;;5.75;3.67;;;;;;;1.72;97.31;100566.66;6274434;28;20041;-78
2022/12/02 03:55:55;;;;;;;7.18;3.03;;;;;;;1.72;97.91;100567.50;6274574;28;20064;-74
2022/12/02 03:58:56;;;;;;;8.43;2.40;;;;;;;1.75;97.07;100571.72;6274389;28;20098;-73
2022/12/02 04:01:57;;;;;;;6.55;2.72;;;;;;;1.78;96.74;100577.69;6275648;28;20124;-74
2022/12/02 04:04:57;;;;;;;6.28;2.50;;;;;;;1.67;96.09;100569.31;6274131;28;20495;-74
2022/12/02 04:07:58;;;;;;;4.38;2.65;;;;;;;1.58;96.81;100561.72;6274099;28;20045;-73
2022/12/02 04:10:59;;;;;;;7.75;4.07;;;;;;;1.71;96.20;100564.94;6274101;28;20404;-74
2022/12/02 04:14:02;;;;;;;4.45;3.13;;;;;;;1.63;96.25;100564.22;6274006;28;20047;-74
2022/12/02 04:17:03;;;;;;;5.75;3.28;;;;;;;1.68;96.41;100572.72;6275183;28;20056;-74
2022/12/02 04:20:05;;;;;;;7.95;4.00;;;;;;;1.84;96.28;100578.47;6273988;28;20475;-74
2022/12/02 04:23:06;;;;;;;8.35;3.17;;;;;;;1.76;95.59;100571.72;6274996;28;20116;-74
2022/12/02 04:26:06;;;;;;;8.90;4.82;;;;;;;1.68;96.03;100565.00;6274937;28;20052;-74
2022/12/02 04:29:14;;;;;;;5.95;3.65;;;;;;;1.64;95.94;100579.63;6274827;28;20122;-74
2022/12/02 04:32:15;;;;;;;7.85;4.13;;;;;;;1.67;96.81;100564.16;6274841;28;20037;-74
2022/12/02 04:35:15;;;;;;;5.70;3.10;;;;;;;1.75;96.50;100577.75;6273568;28;20549;-74
2022/12/02 04:38:16;;;;;;;5.43;3.40;;;;;;;1.63;97.13;100572.81;6273489;28;20548;-73
2022/12/02 04:41:17;;;;;;;7.10;2.50;;;;;;;1.66;96.50;100580.44;6274619;28;20076;-74
2022/12/02 04:44:17;;;;;;;10.40;3.90;;;;;;;1.75;96.51;100571.72;6273281;28;20047;-74
2022/12/02 04:47:18;;;;;;;4.53;2.42;;;;;;;1.71;96.40;100570.06;6273354;28;20036;-74
2022/12/02 04:50:19;;;;;;;6.68;3.67;;;;;;;1.67;96.34;100565.84;6273173;28;20046;-74
2022/12/02 04:53:19;;;;;;;8.38;4.28;;;;;;;1.71;96.59;100578.66;6272237;28;20040;-74
2022/12/02 04:56:20;;;;;;;4.05;2.45;;;;;;;1.75;96.70;100571.72;6273295;28;20048;-74
2022/12/02 04:59:21;;;;;;;8.20;4.70;;;;;;;1.80;96.22;100570.78;6274202;28;20076;-74
2022/12/02 05:02:21;;;;;;;5.45;3.72;;;;;;;1.76;96.17;100570.88;6274111;28;20041;-74
2022/12/02 05:05:22;;;;;;;7.63;3.05;;;;;;;1.73;96.70;100560.63;6272872;28;20499;-74
2022/12/02 05:08:23;;;;;;;3.65;2.67;;;;;;;1.76;96.66;100564.00;6272673;28;20464;-74
2022/12/02 05:11:23;;;;;;;5.32;2.85;;;;;;;1.73;95.88;100556.34;6273858;28;20045;-74
2022/12/02 05:14:25;;;;;;;6.35;2.53;;;;;;;1.78;96.96;100563.97;6273821;28;20041;-74
2022/12/02 05:17:25;;;;;;;4.90;3.17;;;;;;;1.65;96.74;100563.34;6272631;28;20068;-74
2022/12/02 05:20:26;;;;;;;1.88;1.70;;;;;;;1.73;97.12;100573.47;6273823;28;20433;-73
2022/12/02 05:23:27;;;;;;;3.95;2.33;;;;;;;1.70;97.26;100570.97;6290717;28;20068;-74
2022/12/02 05:26:27;;;;;;;5.63;2.85;;;;;;;1.67;96.93;100573.56;6292234;28;20136;-74
2022/12/02 05:29:28;;;;;;;5.93;4.15;;;;;;;1.65;96.32;100572.75;6272256;28;20067;-74
2022/12/02 05:32:29;;;;;;;10.90;5.22;;;;;;;1.72;96.92;100567.50;6292938;28;20113;-74
2022/12/02 05:35:29;;;;;;;9.98;4.43;;;;;;;1.59;97.96;100576.28;6298153;28;20041;-74
2022/12/02 05:38:30;;;;;;;7.95;3.00;;;;;;;1.74;97.08;100570.88;6296875;28;20040;-74
2022/12/02 05:41:31;;;;;;;6.47;3.40;;;;;;;1.75;96.41;100579.44;6298065;28;20045;-74
2022/12/02 05:44:33;;;;;;;5.35;3.03;;;;;;;1.74;95.97;100568.31;6297908;28;20048;-74
2022/12/02 05:47:34;;;;;;;4.95;3.13;;;;;;;1.62;97.03;100573.66;6282822;28;20392;-74
2022/12/02 05:50:35;;;;;;;2.67;1.90;;;;;;;1.71;96.56;100572.66;6277144;28;20049;-74
2022/12/02 05:53:38;;;;;;;8.63;2.83;;;;;;;1.56;98.19;100572.03;6274219;28;20041;-78
2022/12/02 05:56:38;;;;;;;2.55;1.80;;;;;;;1.65;97.75;100573.63;6273902;28;20047;-78
2022/12/02 05:59:39;;;;;;;6.03;2.63;;;;;;;1.73;98.08;100586.34;6271564;28;20044;-78
2022/12/02 06:02:49;;;;;;;8.25;3.67;;;;;;;1.65;98.48;100580.47;6272701;28;20048;-78
2022/12/02 06:05:54;;;;;;;6.05;2.53;;;;;;;1.60;97.91;100589.09;6271286;28;20099;-78
2022/12/02 06:08:55;;;;;;;5.32;3.03;;;;;;;1.52;99.07;100585.81;6271498;28;20056;-77
2022/12/02 06:11:56;;;;;;;3.75;2.65;;;;;;;1.56;100.00;100582.31;6271076;28;20053;-78
2022/12/02 06:14:57;;;;;;;8.85;3.22;;;;;;;1.57;100.00;100583.19;6272261;28;20048;-78
2022/12/02 06:17:57;;;;;;;4.55;2.83;;;;;;;1.56;100.00;100589.19;6271130;28;20037;-78
2022/12/02 06:21:02;;;;;;;9.25;4.18;;;;;;;1.55;100.00;100587.50;6272181;28;20098;-78
2022/12/02 06:24:09;;;;;;;4.80;2.30;;;;;;;1.59;100.00;100594.31;6271171;28;20044;-78
2022/12/02 06:27:13;;;;;;;6.78;3.15;;;;;;;1.64;100.00;100594.22;6304379;28;20055;-78
2022/12/02 06:30:14;;;;;;;7.18;3.00;;;;;;;1.65;100.00;100596.78;6270825;28;20125;-78
2022/12/02 06:33:27;;;;;;;8.05;3.00;;;;;;;1.73;100.00;100597.50;6271918;28;20475;-78
2022/12/02 06:36:32;;;;;;;6.30;4.07;;;;;;;1.81;100.00;100594.78;6271952;28;20048;-78
2022/12/02 06:39:32;;;;;;;5.45;2.88;;;;;;;1.90;100.00;100599.81;6270598;28;20108;-78
2022/12/02 06:42:36;;;;;;;10.10;4.55;;;;;;;1.95;100.00;100603.13;6271816;28;20068;-78
2022/12/02 06:45:41;;;;;;;15.00;4.07;;;;;;;1.98;100.00;100608.25;6271649;28;20119;-78
2022/12/02 06:48:42;;;;;;;3.85;2.58;;;;;;;1.90;100.00;100601.53;6270564;28;20376;-78
2022/12/02 06:51:42;;;;;;;14.75;3.75;;;;;;;1.86;100.00;100605.88;6271491;28;20124;-74
2022/12/02 06:54:45;;;;;;;6.50;2.75;;;;;;;1.95;100.00;100613.44;6270285;28;20048;-74
2022/12/02 06:57:45;;;;;;;3.53;2.17;;;;;;;1.86;100.00;100608.44;6270250;28;20037;-74
2022/12/02 07:00:46;;;;;;;6.55;3.85;;;;;;;1.93;100.00;100615.19;6270203;28;20064;-74
2022/12/02 07:04:24;;;;;;;4.88;2.30;;;;;;;1.68;100.00;100614.72;6271293;28;20041;-74
2022/12/02 07:07:31;;;;;;;3.70;2.75;;;;;;;1.74;100.00;100613.78;6269851;28;20145;-74
2022/12/02 07:10:31;;;;;;;4.35;2.38;;;;;;;1.79;100.00;100620.56;6269863;28;20462;-74
2022/12/02 07:13:35;;;;;;;6.55;4.13;;;;;;;1.88;100.00;100614.41;6270009;28;20041;-74
2022/12/02 07:16:36;;;;;;;6.32;2.67;;;;;;;1.90;100.00;100627.25;6269685;28;20060;-74
2022/12/02 07:19:44;;;;;;;2.92;2.63;;;;;;;1.95;100.00;100626.28;6271120;28;20045;-74
2022/12/02 07:23:12;;;;;;;6.97;3.55;;;;;;;1.91;100.00;100619.50;6271017;28;20067;-74
2022/12/02 07:26:12;;;;;;;4.63;3.20;;;;;;;1.97;100.00;100628.84;6268470;28;20057;-75
2022/12/02 07:29:26;;;;;;;3.60;2.47;;;;;;;1.72;100.00;100628.41;6269938;28;20551;-75
2022/12/02 07:32:27;;;;;;;6.43;3.50;;;;;;;1.75;100.00;100638.63;6269758;28;20048;-74
2022/12/02 07:35:28;;;;;;;7.10;2.97;;;;;;;1.87;100.00;100635.88;6269523;28;20045;-75
2022/12/02 07:38:28;;;;;;;5.63;2.85;;;;;;;1.94;100.00;100636.63;6253028;28;20073;-74
2022/12/02 07:41:30;;;;;;;3.85;3.15;;;;;;;2.01;100.00;100639.06;6252882;28;20077;-75
2022/12/02 07:44:30;;;;;;;3.58;2.72;;;;;;;1.93;100.00;100635.75;6269598;28;20044;-74
2022/12/02 07:47:31;;;;;;;3.97;2.88;;;;;;;1.96;100.00;100642.59;6270691;28;20045;-74
2022/12/02 07:50:32;;;;;;;4.15;3.00;;;;;;;1.90;100.00;100640.13;6270702;28;20041;-78
2022/12/02 07:53:34;;;;;;;2.65;2.28;;;;;;;1.97;100.00;100642.56;6269444;28;20424;-78
2022/12/02 07:56:35;;;;;;;6.80;3.17;;;;;;;1.95;100.00;100644.31;6269511;28;20051;-78
2022/12/02 07:59:36;;;;;;;3.63;2.63;;;;;;;1.98;100.00;100646.00;6270737;28;20049;-78
2022/12/02 08:02:38;;;;;;;5.50;3.72;;;;;;;1.81;100.00;100636.84;6256730;28;20056;-78
2022/12/02 08:05:38;;;;;;;6.07;4.35;;;;;;;1.90;100.00;100646.13;6280295;28;20353;-78
2022/12/02 08:08:39;;;;;;;3.55;2.47;;;;;;;1.84;100.00;100648.78;6279310;28;20057;-78
2022/12/02 08:11:40;;;;;;;7.25;3.92;;;;;;;1.93;100.00;100647.78;6280378;28;20056;-78
2022/12/02 08:14:40;;;;;;;7.75;3.97;;;;;;;1.80;100.00;100658.28;6277087;28;20066;-78
2022/12/02 08:17:42;;;;;;;7.95;2.80;;;;;;;1.70;100.00;100643.00;6277863;28;20052;-78
2022/12/02 08:20:42;;;;;;;5.50;2.95;;;;;;;1.98;100.00;100646.00;6279797;28;20068;-78
2022/12/02 08:23:43;;;;;;;10.23;4.00;;;;;;;2.06;100.00;100657.03;6294277;28;20457;-78
2022/12/02 08:26:46;;;;;;;13.63;4.28;;;;;;;2.20;100.00;100659.34;6301213;28;20057;-78
2022/12/02 08:29:48;;;;;;;5.03;3.25;;;;;;;2.19;100.00;100655.09;6280692;28;20048;-78
2022/12/02 08:32:49;;;;;;;3.28;2.22;;;;;;;2.15;100.00;100659.44;6297052;28;20051;-78
2022/12/02 08:35:50;;;;;;;8.57;4.97;;;;;;;2.14;100.00;100662.03;6298440;28;20037;-78
2022/12/02 08:38:50;;;;;;;13.02;5.32;;;;;;;2.26;100.00;100658.41;6332308;28;20052;-78
2022/12/02 08:41:51;;;;;;;9.02;3.45;;;;;;;2.21;100.00;100661.06;6298068;28;20045;-78
2022/12/02 08:44:52;;;;;;;5.20;3.55;;;;;;;2.26;100.00;100650.69;6298377;28;20120;-78
2022/12/02 08:47:52;;;;;;;4.60;2.88;;;;;;;2.06;100.00;100646.72;6281546;28;20474;-78
2022/12/02 08:50:56;;;;;;;6.13;3.35;;;;;;;2.07;100.00;100650.16;6299338;28;20041;-78
2022/12/02 08:53:57;;;;;;;3.35;2.53;;;;;;;2.07;100.00;100651.00;6298183;28;20048;-78
2022/12/02 08:56:59;;;;;;;4.75;3.00;;;;;;;2.11;100.00;100644.91;6314661;28;20420;-78
2022/12/02 09:00:00;;;;;;;4.03;2.75;;;;;;;2.16;100.00;100647.41;6298156;28;20041;-78
2022/12/02 09:03:00;;;;;;;3.72;2.70;;;;;;;2.25;100.00;100655.00;6297907;28;20508;-78
2022/12/02 09:06:01;;;;;;;6.35;3.45;;;;;;;2.07;100.00;100650.16;6298016;28;20044;-78
2022/12/02 09:09:04;;;;;;;7.65;3.95;;;;;;;2.20;100.00;100656.78;6297428;28;20052;-78
2022/12/02 09:12:05;;;;;;;6.13;3.33;;;;;;;2.24;100.00;100657.59;6297645;28;20072;-78
2022/12/02 09:15:07;;;;;;;7.93;3.13;;;;;;;2.30;100.00;100655.75;6297735;28;20044;-78
2022/12/02 09:18:07;;;;;;;12.80;4.65;;;;;;;2.11;100.00;100657.78;6298554;28;20114;-78
2022/12/02 09:21:08;;;;;;;4.82;3.30;;;;;;;2.18;100.00;100653.38;6298653;28;20475;-78
2022/12/02 09:24:09;;;;;;;6.00;3.38;;;;;;;2.28;100.00;100654.09;6297172;28;20060;-78
2022/12/02 09:27:09;;;;;;;6.18;3.63;;;;;;;2.33;100.00;100655.72;6298264;28;20043;-78
2022/12/02 09:30:10;;;;;;;6.22;4.00;;;;;;;2.33;100.00;100652.28;6297090;28;20115;-78
2022/12/02 09:33:11;;;;;;;7.50;4.13;;;;;;;2.30;100.00;100647.19;6298426;28;20044;-74
2022/12/02 09:36:12;;;;;;;7.00;3.90;;;;;;;2.50;100.00;100646.84;6296952;28;20123;-75
2022/12/02 09:39:12;;;;;;;7.20;3.95;;;;;;;2.48;100.00;100638.28;6297771;28;20044;-75
2022/12/02 09:42:14;;;;;;;7.55;3.75;;;;;;;2.44;100.00;100646.94;6296623;28;20082;-75
2022/12/02 09:45:17;;;;;;;9.57;4.60;;;;;;;2.39;100.00;100644.47;6296650;28;20056;-74
2022/12/02 09:48:18;;;;;;;6.47;3.95;;;;;;;2.31;100.00;100642.00;6296564;28;20139;-74
2022/12/02 09:51:19;;;;;;;5.65;4.55;;;;;;;2.24;100.00;100642.97;6296530;28;20047;-74
2022/12/02 09:54:19;;;;;;;7.25;3.85;;;;;;;2.12;100.00;100640.63;6297684;28;20399;-74
2022/12/02 09:57:24;;;;;;;8.70;4.07;;;;;;;2.22;100.00;100639.56;6297605;28;20098;-75
2022/12/02 10:00:25;;;;;;;5.57;3.40;;;;;;;2.29;100.00;100645.50;6298023;28;20139;-75
2022/12/02 10:03:27;;;;;;;5.85;3.72;;;;;;;2.29;100.00;100638.63;6296185;28;20041;-74
2022/12/02 10:06:28;;;;;;;11.15;4.55;;;;;;;2.47;100.00;100634.88;6296365;28;20037;-75
2022/12/02 10:09:30;;;;;;;10.77;4.53;;;;;;;2.52;100.00;100643.34;6297034;28;20059;-74
2022/12/02 10:12:30;;;;;;;7.60;4.88;;;;;;;2.52;100.00;100640.78;6294184;28;20049;-75
2022/12/02 10:15:32;;;;;;;11.00;5.75;;;;;;;2.66;100.00;100653.41;6281222;28;20052;-78
2022/12/02 10:18:35;;;;;;;14.88;4.68;;;;;;;2.59;100.00;100641.50;6271199;28;20041;-78
2022/12/02 10:21:36;;;;;;;5.85;3.97;;;;;;;2.69;100.00;100645.59;6271408;28;20407;-78
2022/12/02 10:24:38;;;;;;;9.23;4.10;;;;;;;2.68;100.00;100640.47;6271246;28;20041;-78
2022/12/02 10:27:38;;;;;;;11.35;4.95;;;;;;;2.69;100.00;100648.19;6272201;28;20044;-78
2022/12/02 10:30:48;;;;;;;10.32;5.10;;;;;;;2.49;100.00;100652.84;6271005;28;20128;-78
2022/12/02 10:34:00;;;;;;;4.90;3.65;;;;;;;2.40;100.00;100654.72;6270961;28;20815;-78
2022/12/02 10:37:23;;;;;;;7.80;3.97;;;;;;;2.54;100.00;100666.50;6271013;28;20033;-78
2022/12/02 10:40:24;;;;;;;7.90;4.22;;;;;;;2.58;100.00;100648.38;6270835;28;20048;-78
2022/12/02 10:43:25;;;;;;;5.97;3.83;;;;;;;2.56;100.00;100651.88;6273410;28;20041;-78
2022/12/02 10:46:26;;;;;;;8.95;3.92;;;;;;;2.54;100.00;100648.47;6285249;28;20090;-78
2022/12/02 10:49:33;;;;;;;8.37;4.83;;;;;;;2.62;100.00;100655.19;6296760;28;20052;-78
2022/12/02 10:53:00;;;;;;;6.38;4.03;;;;;;;2.71;100.00;100653.31;6303459;28;20066;-78
2022/12/02 10:56:01;;;;;;;6.22;4.10;;;;;;;2.69;100.00;100655.06;6293027;28;20090;-78
2022/12/02 10:59:04;;;;;;;9.07;4.90;;;;;;;2.59;100.00;100651.81;6292302;28;20044;-78
2022/12/02 11:02:19;;;;;;;6.90;3.83;;;;;;;2.61;100.00;100648.34;6293917;28;20056;-78
2022/12/02 11:05:21;;;;;;;5.22;3.10;;;;;;;2.54;100.00;100643.31;6295724;28;20456;-78
2022/12/02 11:08:25;;;;;;;6.80;3.60;;;;;;;2.57;100.00;100638.09;6295467;28;20114;-78
2022/12/02 11:11:27;;;;;;;5.55;3.25;;;;;;;2.74;100.00;100646.38;6294603;28;20830;-78
2022/12/02 11:14:40;;;;;;;8.95;4.65;;;;;;;2.81;100.00;100642.78;6294640;28;20037;-75
2022/12/02 11:17:50;;;;;;;6.30;3.50;;;;;;;2.86;100.00;100647.84;6295875;28;20036;-75
2022/12/02 11:21:06;;;;;;;5.22;3.53;;;;;;;2.82;100.00;100641.91;6294623;28;20055;-75
2022/12/02 11:24:22;;;;;;;8.32;4.38;;;;;;;2.73;100.00;100641.25;6295776;28;20040;-75
2022/12/02 11:27:22;;;;;;;6.25;3.45;;;;;;;2.65;100.00;100635.38;6285952;28;20380;-74
2022/12/02 11:30:23;;;;;;;5.32;2.88;;;;;;;2.64;100.00;100629.38;6273714;28;20037;-75
2022/12/02 11:33:42;;;;;;;5.22;3.83;;;;;;;2.63;100.00;100627.69;6289812;28;20049;-74
2022/12/02 11:36:43;;;;;;;9.40;3.63;;;;;;;2.60;100.00;100625.19;6294548;28;20048;-74
2022/12/02 11:39:46;;;;;;;4.85;2.78;;;;;;;2.66;100.00;100637.94;6295728;28;20083;-74
2022/12/02 11:42:47;;;;;;;6.20;3.13;;;;;;;2.70;100.00;100630.97;6280337;28;20683;-78
2022/12/02 11:45:47;;;;;;;7.53;3.75;;;;;;;2.85;100.00;100641.00;6270841;28;20044;-74
2022/12/02 11:48:51;;;;;;;9.43;4.28;;;;;;;2.74;100.00;100630.91;6270835;28;20531;-74
2022/12/02 11:52:18;;;;;;;10.90;4.07;;;;;;;2.69;100.00;100624.97;6302971;28;20097;-74
2022/12/02 11:55:22;;;;;;;4.28;3.30;;;;;;;2.81;100.00;100629.06;6293373;28;20048;-75
2022/12/02 11:58:29;;;;;;;10.50;4.00;;;;;;;2.63;100.00;100631.09;6295489;28;20036;-78
2022/12/02 12:01:30;;;;;;;14.43;4.32;;;;;;;2.61;100.00;100635.47;6294314;28;20052;-78
2022/12/02 12:04:30;;;;;;;10.90;4.72;;;;;;;2.52;100.00;100629.63;6331930;28;20072;-78
2022/12/02 12:07:43;;;;;;;10.45;4.50;;;;;;;2.59;100.00;100632.06;6300434;28;20043;-78
2022/12/02 12:10:44;;;;;;;7.93;4.18;;;;;;;2.69;100.00;100634.44;6298980;28;20050;-78
2022/12/02 12:14:12;;;;;;;10.18;4.15;;;;;;;2.73;100.00;100636.94;6299077;28;20037;-78
2022/12/02 12:17:38;;;;;;;9.95;4.53;;;;;;;2.55;100.00;100637.28;6299049;28;20048;-74
2022/12/02 12:20:42;;;;;;;6.85;3.80;;;;;;;2.49;100.00;100635.69;6281790;28;20561;-74
2022/12/02 12:23:44;;;;;;;11.35;4.55;;;;;;;2.63;100.00;100635.41;6290514;28;20511;-78
2022/12/02 12:26:45;;;;;;;7.07;3.75;;;;;;;2.67;100.00;100643.94;6273752;28;20048;-78
2022/12/02 12:29:46;;;;;;;9.05;4.35;;;;;;;2.71;100.00;100645.56;6282287;28;20047;-78
2022/12/02 12:32:46;;;;;;;10.35;4.22;;;;;;;2.81;100.00;100641.94;6332271;28;20447;-78
2022/12/02 12:35:47;;;;;;;14.95;6.03;;;;;;;2.80;100.00;100641.09;6273687;28;20076;-78
2022/12/02 12:38:48;;;;;;;15.60;5.35;;;;;;;2.70;100.00;100630.97;6295937;28;20094;-78
2022/12/02 12:41:49;;;;;;;9.93;4.85;;;;;;;2.80;100.00;100637.66;6297756;28;20037;-78
2022/12/02 12:44:52;;;;;;;10.60;4.90;;;;;;;2.70;100.00;100634.44;6297136;28;20094;-78
2022/12/02 12:47:53;;;;;;;9.48;4.50;;;;;;;2.74;100.00;100627.47;6298223;28;20541;-76
2022/12/02 12:50:53;;;;;;;13.95;6.93;;;;;;;2.77;100.00;100637.72;6279596;28;20143;-78
2022/12/02 12:53:54;;;;;;;9.52;5.63;;;;;;;2.81;100.00;100629.91;6299119;28;20097;-78
2022/12/02 12:56:55;;;;;;;8.30;4.40;;;;;;;2.63;100.00;100636.25;6299250;28;20128;-78
2022/12/02 12:59:55;;;;;;;10.13;5.30;;;;;;;2.64;100.00;100626.81;6291427;28;20037;-78
2022/12/02 13:02:56;;;;;;;10.18;5.40;;;;;;;2.51;100.00;100625.34;6275168;28;20053;-78
2022/12/02 13:05:57;;;;;;;8.65;4.28;;;;;;;2.61;100.00;100627.72;6299811;28;20032;-74
2022/12/02 13:08:58;;;;;;;7.88;2.80;;;;;;;2.59;100.00;100624.34;6299395;28;20052;-78
2022/12/02 13:11:59;;;;;;;7.10;4.05;;;;;;;2.69;100.00;100621.56;6298720;28;20447;-78
2022/12/02 13:15:00;;;;;;;6.28;3.25;;;;;;;2.56;100.00;100624.38;6296904;28;20119;-78
2022/12/02 13:18:00;;;;;;;7.45;4.40;;;;;;;2.57;100.00;100631.25;6284314;28;20052;-78
2022/12/02 13:21:01;;;;;;;8.02;4.72;;;;;;;2.56;100.00;100626.13;6287554;28;20448;-78
2022/12/02 13:24:04;;;;;;;7.10;4.57;;;;;;;2.59;100.00;100631.19;6283112;28;20463;-78
2022/12/02 13:27:05;;;;;;;10.20;4.60;;;;;;;2.61;100.00;100632.88;6295665;28;20045;-78
2022/12/02 13:30:07;;;;;;;14.32;5.95;;;;;;;2.50;100.00;100637.38;6296710;28;20504;-78
2022/12/02 13:33:08;;;;;;;;;;;;;;;2.70;100.00;100644.72;6288446;28;20041;-78
2022/12/02 13:36:09;;;;;;;10.10;4.60;;;;;;;2.69;100.00;100649.91;6283423;28;19963;-78
2022/12/02 13:39:12;;;;;;;9.68;5.00;;;;;;;2.86;100.00;100647.84;6283051;28;20480;-75
2022/12/02 13:42:12;;;;;;;13.07;5.95;;;;;;;2.82;100.00;100654.81;6305491;28;20075;-74
2022/12/02 13:45:13;;;;;;;7.82;4.60;;;;;;;2.72;100.00;100644.69;6298429;28;20474;-74
2022/12/02 13:48:14;;;;;;;13.38;6.22;;;;;;;2.73;100.00;100646.41;6297431;28;20044;-74
2022/12/02 13:51:15;;;;;;;13.50;6.40;;;;;;;2.67;100.00;100649.94;6296746;28;20437;-74
2022/12/02 13:54:16;;;;;;;13.40;7.50;;;;;;;2.65;100.00;100654.25;6280446;28;20044;-74
2022/12/02 13:57:17;;;;;;;12.80;5.93;;;;;;;2.62;100.00;100655.19;6296919;28;20375;-74
2022/12/02 14:00:18;;;;;;;10.93;5.93;;;;;;;2.59;100.00;100652.69;6297925;28;20044;-74
2022/12/02 14:03:19;;;;;;;13.85;7.53;;;;;;;2.69;100.00;100658.47;6297184;28;20047;-73
2022/12/02 14:06:19;;;;;;;13.45;5.63;;;;;;;2.68;100.00;100659.38;6279486;28;20048;-74
2022/12/02 14:09:20;;;;;;;12.38;6.60;;;;;;;2.77;100.00;100663.50;6276610;28;20450;-74
2022/12/02 14:12:21;;;;;;;22.15;5.85;;;;;;;2.82;100.00;100657.38;6303097;28;20090;-74
2022/12/02 14:15:24;;;;;;;10.73;6.47;;;;;;;2.82;100.00;100659.09;6282021;28;20371;-74